createdAt,value
2023-05-13T00:00:43.684Z,1.95
2023-05-13T00:03:11.112Z,2.03
2023-05-13T00:05:39.684Z,1.80
2023-05-13T00:08:07.671Z,1.67
2023-05-13T00:10:36.336Z,2.03
2023-05-13T00:13:03.795Z,1.77
2023-05-13T00:15:32.208Z,1.80
2023-05-13T00:17:59.884Z,1.98
2023-05-13T00:20:27.315Z,1.40
2023-05-13T00:22:54.421Z,1.40
2023-05-13T00:25:21.489Z,1.45
2023-05-13T00:27:48.728Z,1.63
2023-05-13T00:30:16.442Z,1.23
2023-05-13T00:32:43.727Z,1.55
2023-05-13T00:35:11.149Z,1.48
2023-05-13T00:37:38.973Z,1.90
2023-05-13T00:40:22.305Z,1.88
2023-05-13T00:42:50.104Z,1.90
2023-05-13T00:45:17.996Z,1.40
2023-05-13T00:47:45.527Z,1.80
2023-05-13T00:50:15.217Z,1.80
2023-05-13T00:52:43.274Z,2.00
2023-05-13T00:55:11.314Z,1.67
2023-05-13T00:57:40.517Z,2.00
2023-05-13T01:00:09.221Z,1.75
2023-05-13T01:03:13.206Z,2.20
2023-05-13T01:06:05.514Z,1.60
2023-05-13T01:08:37.942Z,1.70
2023-05-13T01:11:11.885Z,1.98
2023-05-13T01:13:43.422Z,1.90
2023-05-13T01:16:29.697Z,1.90
2023-05-13T01:18:59.699Z,1.95
2023-05-13T01:21:27.844Z,1.90
2023-05-13T01:23:56.211Z,1.70
2023-05-13T01:26:26.769Z,1.40
2023-05-13T01:28:54.722Z,2.00
2023-05-13T01:31:24.042Z,1.80
2023-05-13T01:33:52.274Z,2.00
2023-05-13T01:36:19.930Z,1.80
2023-05-13T01:38:48.954Z,1.60
2023-05-13T01:41:16.382Z,1.95
2023-05-13T01:43:43.731Z,1.77
2023-05-13T01:46:26.783Z,1.90
2023-05-13T01:48:54.449Z,1.70
2023-05-13T01:51:21.839Z,1.40
2023-05-13T01:53:50.407Z,1.65
2023-05-13T01:56:19.214Z,1.23
2023-05-13T01:58:48.695Z,1.40
2023-05-13T02:01:16.204Z,1.63
2023-05-13T02:03:43.481Z,1.20
2023-05-13T02:06:13.910Z,0.95
2023-05-13T02:08:41.817Z,1.00
2023-05-13T02:11:09.542Z,0.93
2023-05-13T02:13:38.269Z,1.00
2023-05-13T02:16:05.648Z,1.10
2023-05-13T02:18:33.072Z,0.85
2023-05-13T02:21:00.150Z,1.02
2023-05-13T02:23:28.101Z,1.17
2023-05-13T02:25:56.117Z,1.00
2023-05-13T02:28:23.222Z,1.00
2023-05-13T02:30:50.653Z,0.80
2023-05-13T02:33:17.848Z,0.90
2023-05-13T02:35:45.030Z,0.82
2023-05-13T02:38:13.315Z,0.93
2023-05-13T02:40:40.658Z,1.10
2023-05-13T02:43:07.880Z,1.30
2023-05-13T02:45:59.404Z,1.33
2023-05-13T02:48:26.467Z,0.90
2023-05-13T02:50:53.340Z,1.02
2023-05-13T02:53:20.517Z,1.10
2023-05-13T02:55:54.374Z,1.20
2023-05-13T02:58:24.625Z,1.38
2023-05-13T03:00:52.485Z,1.10
2023-05-13T03:03:19.441Z,1.15
2023-05-13T03:05:46.571Z,1.27
2023-05-13T03:08:13.467Z,1.13
2023-05-13T03:10:40.644Z,1.80
2023-05-13T03:13:07.526Z,1.52
2023-05-13T03:15:35.195Z,1.52
2023-05-13T03:18:02.135Z,1.70
2023-05-13T03:20:29.089Z,1.52
2023-05-13T03:22:56.010Z,1.50
2023-05-13T03:25:22.897Z,1.58
2023-05-13T03:27:55.266Z,1.20
2023-05-13T03:30:24.987Z,1.40
2023-05-13T03:32:59.809Z,1.85
2023-05-13T03:35:26.879Z,1.63
2023-05-13T03:37:53.808Z,1.55
2023-05-13T03:40:21.032Z,1.55
2023-05-13T03:42:50.457Z,1.60
2023-05-13T03:45:19.103Z,2.28
2023-05-13T03:47:50.136Z,2.03
2023-05-13T03:50:18.236Z,2.30
2023-05-13T03:52:47.236Z,1.80
2023-05-13T03:55:15.564Z,1.95
2023-05-13T03:57:48.604Z,2.25
2023-05-13T04:00:17.991Z,2.33
2023-05-13T04:02:47.243Z,2.40
2023-05-13T04:05:14.669Z,2.40
2023-05-13T04:07:42.025Z,2.70
2023-05-13T04:10:11.735Z,3.10
2023-05-13T04:12:40.499Z,2.75
2023-05-13T04:15:07.943Z,2.42
2023-05-13T04:17:34.934Z,3.30
2023-05-13T04:20:01.957Z,2.95
2023-05-13T04:22:30.359Z,3.05
2023-05-13T04:24:57.306Z,3.22
2023-05-13T04:27:24.643Z,2.53
2023-05-13T04:29:56.409Z,2.88
2023-05-13T04:32:23.586Z,3.17
2023-05-13T04:34:55.444Z,3.67
2023-05-13T04:37:24.695Z,3.28
2023-05-13T04:39:54.775Z,2.85
2023-05-13T04:42:23.682Z,3.00
2023-05-13T04:44:50.549Z,3.25
2023-05-13T04:47:18.708Z,3.47
2023-05-13T04:49:45.646Z,3.72
2023-05-13T04:52:13.281Z,4.18
2023-05-13T04:54:40.691Z,3.60
2023-05-13T04:57:07.956Z,3.90
2023-05-13T04:59:35.909Z,3.13
2023-05-13T05:02:03.088Z,3.90
2023-05-13T05:04:30.041Z,3.88
2023-05-13T05:06:57.327Z,3.78
2023-05-13T05:09:24.300Z,4.20
2023-05-13T05:11:52.992Z,3.92
2023-05-13T05:14:22.496Z,4.05
2023-05-13T05:16:50.621Z,4.60
2023-05-13T05:19:17.726Z,4.82
2023-05-13T05:21:44.983Z,4.82
2023-05-13T05:24:13.247Z,5.80
2023-05-13T05:26:42.735Z,6.20
2023-05-13T05:29:09.991Z,6.22
2023-05-13T05:31:37.171Z,5.97
2023-05-13T05:34:04.557Z,6.38
2023-05-13T05:36:32.386Z,6.10
2023-05-13T05:38:59.520Z,5.68
2023-05-13T05:41:32.879Z,6.60
2023-05-13T05:43:59.851Z,6.07
2023-05-13T05:46:26.862Z,5.38
2023-05-13T05:48:54.229Z,6.30
2023-05-13T05:51:22.841Z,6.03
2023-05-13T05:53:50.046Z,5.93
2023-05-13T05:56:17.268Z,7.15
2023-05-13T05:58:45.460Z,7.40
2023-05-13T06:01:12.386Z,7.00
2023-05-13T06:03:39.540Z,6.63
2023-05-13T06:06:06.751Z,5.35
2023-05-13T06:08:34.148Z,5.43
2023-05-13T06:11:01.241Z,5.80
2023-05-13T06:13:28.245Z,6.55
2023-05-13T06:15:55.634Z,6.03
2023-05-13T06:18:23.016Z,6.10
2023-05-13T06:20:50.127Z,6.30
2023-05-13T06:23:18.729Z,5.95
2023-05-13T06:25:46.940Z,6.68
2023-05-13T06:28:13.981Z,5.10
2023-05-13T06:30:41.938Z,4.50
2023-05-13T06:33:12.499Z,4.68
2023-05-13T06:35:39.618Z,5.07
2023-05-13T06:38:07.201Z,4.50
2023-05-13T06:40:35.331Z,4.32
2023-05-13T06:43:02.515Z,5.20
2023-05-13T06:45:31.570Z,4.85
2023-05-13T06:47:58.595Z,5.30
2023-05-13T06:50:25.531Z,4.57
2023-05-13T06:52:52.457Z,5.15
2023-05-13T06:55:19.886Z,4.88
2023-05-13T06:57:47.445Z,5.45
2023-05-13T07:00:15.561Z,4.95
2023-05-13T07:02:42.608Z,5.47
2023-05-13T07:05:11.468Z,5.20
2023-05-13T07:07:38.633Z,5.20
2023-05-13T07:10:05.929Z,5.32
2023-05-13T07:12:33.850Z,5.15
2023-05-13T07:15:00.747Z,4.68
2023-05-13T07:17:27.685Z,5.07
2023-05-13T07:19:54.829Z,4.65
2023-05-13T07:22:21.725Z,4.65
2023-05-13T07:24:48.559Z,5.57
2023-05-13T07:27:15.514Z,6.18
2023-05-13T07:29:42.451Z,6.00
2023-05-13T07:32:09.373Z,8.63
2023-05-13T07:34:36.531Z,7.68
2023-05-13T07:37:04.557Z,6.38
2023-05-13T07:39:31.513Z,5.10
2023-05-13T07:41:58.753Z,5.25
2023-05-13T07:44:26.091Z,5.38
2023-05-13T07:46:53.618Z,5.03
2023-05-13T07:49:21.637Z,4.47
2023-05-13T07:51:48.730Z,4.10
2023-05-13T07:54:15.628Z,5.05
2023-05-13T07:56:44.292Z,5.10
2023-05-13T07:59:11.262Z,4.35
2023-05-13T08:01:38.297Z,4.10
2023-05-13T08:04:05.519Z,3.60
2023-05-13T08:06:33.097Z,4.10
2023-05-13T08:09:01.324Z,3.50
2023-05-13T08:11:28.948Z,4.13
2023-05-13T08:13:55.973Z,3.15
2023-05-13T08:16:23.131Z,3.35
2023-05-13T08:18:50.161Z,3.25
2023-05-13T08:21:17.086Z,3.22
2023-05-13T08:23:45.333Z,3.10
2023-05-13T08:26:13.802Z,2.92
2023-05-13T08:28:42.364Z,2.90
2023-05-13T08:31:12.289Z,2.80
2023-05-13T08:33:41.599Z,2.90
2023-05-13T08:36:09.440Z,2.90
2023-05-13T08:38:40.148Z,2.90
2023-05-13T08:41:07.961Z,2.23
2023-05-13T08:43:38.202Z,2.50
2023-05-13T08:46:09.922Z,2.60
2023-05-13T08:48:39.439Z,2.72
2023-05-13T08:51:06.740Z,2.55
2023-05-13T08:53:35.492Z,2.30
2023-05-13T08:56:03.419Z,2.38
2023-05-13T08:58:30.668Z,2.60
2023-05-13T09:00:58.726Z,1.70
2023-05-13T09:03:28.373Z,1.90
2023-05-13T09:05:55.507Z,1.70
2023-05-13T09:08:22.716Z,2.10
2023-05-13T09:10:50.042Z,2.00
2023-05-13T09:13:18.758Z,1.83
2023-05-13T09:15:46.316Z,2.17
2023-05-13T09:18:18.548Z,2.05
2023-05-13T09:20:46.414Z,2.25
2023-05-13T09:23:14.064Z,2.47
2023-05-13T09:25:41.541Z,2.30
2023-05-13T09:28:09.007Z,2.50
2023-05-13T09:30:40.363Z,2.58
2023-05-13T09:33:20.289Z,2.75
2023-05-13T09:35:53.071Z,2.30
2023-05-13T09:38:24.970Z,2.40
2023-05-13T09:40:58.320Z,3.85
2023-05-13T09:43:34.197Z,2.70
2023-05-13T09:46:02.838Z,3.00
2023-05-13T09:48:32.110Z,2.80
2023-05-13T09:51:00.681Z,2.45
2023-05-13T09:53:28.616Z,2.60
2023-05-13T09:55:58.054Z,3.00
2023-05-13T09:58:31.217Z,2.55
2023-05-13T10:00:59.281Z,2.38
2023-05-13T10:03:29.223Z,2.83
2023-05-13T10:06:00.458Z,2.42
2023-05-13T10:08:29.617Z,2.15
2023-05-13T10:10:57.577Z,2.20
2023-05-13T10:13:25.722Z,2.40
2023-05-13T10:15:55.485Z,2.80
2023-05-13T10:18:26.710Z,2.30
2023-05-13T10:20:54.723Z,2.13
2023-05-13T10:23:24.430Z,2.50
2023-05-13T10:25:54.834Z,2.10
2023-05-13T10:28:22.596Z,2.53
2023-05-13T10:30:51.644Z,2.70
2023-05-13T10:33:19.875Z,3.05
2023-05-13T10:36:19.204Z,2.78
2023-05-13T10:39:05.207Z,2.95
2023-05-13T10:41:55.754Z,2.95
2023-05-13T10:44:24.568Z,3.50
2023-05-13T10:46:51.945Z,3.60
2023-05-13T10:49:22.365Z,3.25
2023-05-13T10:51:50.227Z,3.30
2023-05-13T10:54:22.782Z,4.00
2023-05-13T10:56:59.468Z,5.10
2023-05-13T10:59:30.605Z,5.90
2023-05-13T11:02:00.987Z,6.10
2023-05-13T11:04:28.268Z,7.60
2023-05-13T11:06:55.579Z,8.10
2023-05-13T11:09:22.966Z,7.20
2023-05-13T11:11:54.496Z,7.55
2023-05-13T11:14:26.373Z,8.30
2023-05-13T11:17:01.289Z,9.05
2023-05-13T11:19:29.996Z,9.20
2023-05-13T11:22:08.301Z,10.02
2023-05-13T11:24:36.600Z,10.88
2023-05-13T11:27:18.151Z,10.85
2023-05-13T11:29:54.815Z,10.65
2023-05-13T11:32:57.218Z,10.88
2023-05-13T11:35:32.978Z,11.48
2023-05-13T11:38:01.768Z,12.52
2023-05-13T11:40:39.302Z,12.20
2023-05-13T11:43:07.958Z,13.38
2023-05-13T11:45:39.310Z,12.68
2023-05-13T11:48:23.649Z,14.45
2023-05-13T11:50:54.438Z,12.68
2023-05-13T11:53:22.701Z,14.37
2023-05-13T11:55:50.257Z,13.50
2023-05-13T11:58:17.660Z,12.35
2023-05-13T12:00:46.611Z,11.13
2023-05-13T12:03:16.399Z,11.25
2023-05-13T12:05:44.669Z,11.23
2023-05-13T12:08:12.314Z,11.35
2023-05-13T12:10:45.826Z,10.85
2023-05-13T12:13:13.539Z,11.00
2023-05-13T12:15:42.077Z,9.40
2023-05-13T12:18:10.451Z,10.18
2023-05-13T12:20:38.536Z,8.48
2023-05-13T12:23:06.459Z,8.85
2023-05-13T12:25:42.993Z,8.63
2023-05-13T12:28:13.280Z,9.82
2023-05-13T12:30:42.984Z,9.38
2023-05-13T12:33:18.137Z,9.55
2023-05-13T12:35:48.570Z,10.23
2023-05-13T12:38:20.841Z,9.55
2023-05-13T12:40:49.834Z,9.77
2023-05-13T12:43:20.444Z,10.43
2023-05-13T12:45:52.743Z,9.50
2023-05-13T12:48:24.007Z,10.07
2023-05-13T12:50:51.670Z,9.73
2023-05-13T12:53:18.853Z,10.88
2023-05-13T12:55:45.936Z,9.00
2023-05-13T12:58:13.723Z,7.13
2023-05-13T13:00:41.052Z,8.10
2023-05-13T13:03:08.557Z,8.30
2023-05-13T13:05:36.125Z,8.23
2023-05-13T13:08:05.456Z,7.90
2023-05-13T13:10:32.589Z,8.13
2023-05-13T13:12:59.827Z,9.18
2023-05-13T13:15:26.931Z,7.90
2023-05-13T13:17:54.208Z,7.50
2023-05-13T13:20:21.481Z,7.40
2023-05-13T13:22:48.771Z,10.80
2023-05-13T13:25:16.114Z,8.15
2023-05-13T13:27:43.571Z,7.93
2023-05-13T13:30:11.086Z,8.25
2023-05-13T13:32:38.509Z,6.32
2023-05-13T13:35:06.029Z,6.10
2023-05-13T13:37:33.930Z,7.07
2023-05-13T13:40:02.921Z,6.10
2023-05-13T13:42:43.459Z,6.68
2023-05-13T13:45:12.703Z,5.85
2023-05-13T13:47:40.071Z,6.20
2023-05-13T13:50:10.741Z,6.82
2023-05-13T13:52:38.319Z,6.32
2023-05-13T13:55:05.969Z,6.18
2023-05-13T13:57:33.166Z,7.03
2023-05-13T14:00:00.416Z,6.70
2023-05-13T14:02:27.645Z,6.30
2023-05-13T14:04:55.101Z,6.22
2023-05-13T14:07:22.363Z,7.07
2023-05-13T14:10:01.038Z,7.57
2023-05-13T14:12:28.781Z,5.63
2023-05-13T14:14:56.049Z,5.93
2023-05-13T14:17:23.618Z,6.38
2023-05-13T14:19:51.854Z,6.35
2023-05-13T14:22:18.941Z,6.43
2023-05-13T14:24:46.146Z,6.57
2023-05-13T14:27:17.948Z,7.75
2023-05-13T14:29:47.795Z,7.30
2023-05-13T14:32:15.416Z,6.85
2023-05-13T14:34:43.255Z,5.97
2023-05-13T14:37:10.436Z,6.25
2023-05-13T14:40:14.959Z,5.82
2023-05-13T14:42:42.389Z,5.30
2023-05-13T14:45:12.559Z,5.93
2023-05-13T14:47:43.127Z,5.78
2023-05-13T14:50:16.763Z,5.40
2023-05-13T14:52:44.034Z,5.00
2023-05-13T14:55:11.999Z,4.78
2023-05-13T14:57:39.632Z,5.13
2023-05-13T15:00:07.909Z,4.75
2023-05-13T15:02:35.442Z,5.10
2023-05-13T15:05:09.622Z,4.80
2023-05-13T15:07:36.898Z,5.53
2023-05-13T15:10:04.372Z,6.10
2023-05-13T15:12:31.670Z,6.18
2023-05-13T15:14:59.121Z,6.20
2023-05-13T15:17:27.223Z,5.88
2023-05-13T15:19:54.685Z,6.32
2023-05-13T15:22:21.956Z,6.30
2023-05-13T15:24:49.210Z,6.88
2023-05-13T15:27:17.218Z,7.18
2023-05-13T15:29:44.595Z,7.10
2023-05-13T15:32:12.153Z,6.70
2023-05-13T15:34:39.686Z,5.93
2023-05-13T15:37:06.966Z,7.53
2023-05-13T15:39:34.231Z,6.95
2023-05-13T15:42:01.755Z,7.15
2023-05-13T15:44:29.154Z,6.75
2023-05-13T15:46:56.615Z,7.50
2023-05-13T15:49:24.186Z,9.07
2023-05-13T15:51:51.361Z,8.55
2023-05-13T15:54:18.746Z,15.00
2023-05-13T15:56:46.440Z,9.13
2023-05-13T15:59:13.895Z,8.68
2023-05-13T16:02:15.293Z,10.32
2023-05-13T16:04:42.789Z,10.02
2023-05-13T16:07:12.074Z,10.75
2023-05-13T16:09:40.219Z,10.27
2023-05-13T16:12:07.920Z,10.13
2023-05-13T16:14:35.210Z,9.23
2023-05-13T16:17:02.454Z,9.82
2023-05-13T16:19:30.049Z,10.23
2023-05-13T16:21:57.310Z,9.98
2023-05-13T16:24:24.589Z,10.20
2023-05-13T16:26:51.869Z,10.02
2023-05-13T16:29:19.018Z,10.80
2023-05-13T16:31:46.341Z,9.93
2023-05-13T16:34:13.749Z,10.85
2023-05-13T16:36:41.038Z,10.35
2023-05-13T16:39:08.541Z,10.95
2023-05-13T16:41:36.718Z,10.85
2023-05-13T16:44:04.538Z,10.85
2023-05-13T16:46:35.745Z,12.52
2023-05-13T16:49:03.363Z,11.98
2023-05-13T16:51:31.173Z,15.63
2023-05-13T16:53:58.664Z,46.35
2023-05-13T16:56:27.093Z,16.48
2023-05-13T16:58:55.054Z,16.15
2023-05-13T17:01:22.667Z,10.80
2023-05-13T17:03:50.314Z,10.68
2023-05-13T17:06:17.951Z,9.20
2023-05-13T17:08:45.839Z,9.80
2023-05-13T17:11:17.191Z,10.27
2023-05-13T17:13:45.257Z,9.48
2023-05-13T17:16:14.130Z,10.73
2023-05-13T17:18:41.822Z,9.48
2023-05-13T17:21:09.370Z,9.48
2023-05-13T17:23:37.328Z,11.35
2023-05-13T17:26:05.140Z,10.35
2023-05-13T17:28:34.405Z,12.38
2023-05-13T17:31:02.374Z,10.10
2023-05-13T17:33:57.868Z,10.50
2023-05-13T17:36:25.683Z,11.10
2023-05-13T17:38:54.884Z,10.88
2023-05-13T17:41:23.121Z,9.38
2023-05-13T17:43:51.396Z,9.70
2023-05-13T17:46:19.121Z,9.48
2023-05-13T17:49:50.926Z,9.85
2023-05-13T17:52:18.739Z,9.18
2023-05-13T17:54:52.957Z,9.10
2023-05-13T17:57:20.887Z,9.75
2023-05-13T17:59:48.984Z,9.40
2023-05-13T18:02:17.108Z,9.20
2023-05-13T18:04:45.334Z,9.23
2023-05-13T18:07:13.262Z,9.70
2023-05-13T18:09:41.423Z,10.60
2023-05-13T18:12:09.407Z,10.18
2023-05-13T18:14:37.390Z,23.02
2023-05-13T18:17:05.560Z,10.98
2023-05-13T18:19:33.553Z,14.10
2023-05-13T18:22:01.422Z,10.43
2023-05-13T18:24:29.608Z,23.33
2023-05-13T18:26:57.594Z,9.95
2023-05-13T18:29:25.639Z,9.38
2023-05-13T18:31:53.979Z,10.07
2023-05-13T18:34:22.676Z,10.40
2023-05-13T18:36:52.451Z,9.38
2023-05-13T18:39:22.191Z,10.27
2023-05-13T18:41:50.760Z,14.07
2023-05-13T18:44:18.808Z,12.45
2023-05-13T18:47:12.338Z,12.05
2023-05-13T18:49:40.764Z,10.30
2023-05-13T18:52:08.786Z,10.98
2023-05-13T18:54:37.770Z,10.13
2023-05-13T18:57:06.183Z,11.05
2023-05-13T18:59:34.122Z,10.60
2023-05-13T19:02:17.952Z,15.77
2023-05-13T19:05:11.591Z,35.42
2023-05-13T19:07:40.173Z,16.48
2023-05-13T19:10:08.807Z,11.05
2023-05-13T19:12:38.988Z,9.00
2023-05-13T19:15:08.581Z,9.75
2023-05-13T19:17:40.466Z,11.18
2023-05-13T19:20:09.839Z,11.52
2023-05-13T19:23:03.132Z,11.20
2023-05-13T19:25:31.468Z,9.68
2023-05-13T19:28:25.537Z,9.50
2023-05-13T19:30:55.094Z,8.70
2023-05-13T19:33:24.880Z,8.80
2023-05-13T19:35:53.906Z,9.35
2023-05-13T19:38:24.532Z,10.25
2023-05-13T19:40:55.535Z,10.45
2023-05-13T19:43:24.893Z,9.75
2023-05-13T19:45:56.433Z,9.88
2023-05-13T19:48:24.841Z,9.75
2023-05-13T19:50:54.455Z,9.32
2023-05-13T19:53:22.912Z,10.27
2023-05-13T19:55:50.886Z,10.80
2023-05-13T19:58:19.051Z,11.48
2023-05-13T20:00:48.527Z,13.23
2023-05-13T20:03:17.173Z,13.30
2023-05-13T20:05:45.579Z,12.30
2023-05-13T20:08:15.147Z,11.30
2023-05-13T20:10:43.564Z,11.70
2023-05-13T20:13:13.393Z,10.10
2023-05-13T20:15:43.466Z,10.10
2023-05-13T20:18:11.832Z,10.80
2023-05-13T20:20:43.640Z,11.23
2023-05-13T20:23:14.437Z,11.43
2023-05-13T20:25:43.179Z,12.07
2023-05-13T20:28:11.513Z,11.50
2023-05-13T20:30:43.946Z,11.18
2023-05-13T20:33:14.012Z,10.80
2023-05-13T20:35:46.269Z,10.65
2023-05-13T20:38:35.035Z,12.52
2023-05-13T20:41:03.420Z,10.80
2023-05-13T20:43:33.300Z,12.80
2023-05-13T20:46:03.595Z,11.77
2023-05-13T20:48:35.907Z,11.77
2023-05-13T20:51:09.517Z,11.50
2023-05-13T20:53:38.087Z,13.90
2023-05-13T20:56:07.519Z,15.43
2023-05-13T20:58:36.119Z,13.07
2023-05-13T21:01:05.561Z,15.73
2023-05-13T21:03:34.041Z,16.83
2023-05-13T21:06:01.746Z,18.20
2023-05-13T21:08:29.348Z,15.90
2023-05-13T21:10:57.407Z,16.73
2023-05-13T21:13:26.627Z,15.23
2023-05-13T21:15:54.512Z,15.15
2023-05-13T21:18:22.640Z,16.15
2023-05-13T21:20:50.487Z,16.08
2023-05-13T21:23:19.384Z,16.58
2023-05-13T21:25:48.160Z,18.55
2023-05-13T21:28:15.676Z,16.35
2023-05-13T21:30:42.937Z,15.63
2023-05-13T21:33:10.914Z,16.38
2023-05-13T21:35:38.176Z,17.02
2023-05-13T21:38:12.042Z,18.90
2023-05-13T21:40:40.233Z,17.42
2023-05-13T21:43:07.477Z,19.50
2023-05-13T21:45:34.718Z,18.13
2023-05-13T21:48:02.211Z,19.20
2023-05-13T21:50:29.845Z,19.30
2023-05-13T21:56:58.043Z,18.13
2023-05-13T21:59:25.560Z,17.45
2023-05-13T22:01:52.939Z,18.40
2023-05-13T22:04:20.171Z,17.10
2023-05-13T22:06:47.477Z,20.45
2023-05-13T22:09:14.680Z,21.35
2023-05-13T22:11:42.280Z,19.23
2023-05-13T22:14:09.452Z,19.02
2023-05-13T22:16:36.764Z,20.15
2023-05-13T22:19:04.705Z,19.83
2023-05-13T22:21:32.595Z,17.73
2023-05-13T22:23:59.998Z,16.80
2023-05-13T22:26:27.346Z,18.33
2023-05-13T22:28:54.499Z,17.42
2023-05-13T22:31:21.668Z,18.17
2023-05-13T22:33:48.855Z,16.55
2023-05-13T22:36:16.100Z,15.68
2023-05-13T22:38:44.209Z,19.02
2023-05-13T22:41:11.950Z,20.33
2023-05-13T22:43:39.376Z,18.15
2023-05-13T22:46:06.590Z,18.15
2023-05-13T22:48:33.700Z,15.68
2023-05-13T22:51:02.081Z,18.75
2023-05-13T22:53:29.283Z,19.95
2023-05-13T22:55:56.539Z,17.88
2023-05-13T22:58:23.779Z,17.48
2023-05-13T23:00:51.181Z,19.73
2023-05-13T23:03:18.319Z,20.85
2023-05-13T23:05:45.714Z,18.98
2023-05-13T23:08:16.295Z,17.40
2023-05-13T23:10:43.611Z,16.90
2023-05-13T23:13:10.748Z,18.23
2023-05-13T23:15:38.064Z,17.52
2023-05-13T23:18:05.329Z,16.88
2023-05-13T23:20:32.991Z,14.10
2023-05-13T23:23:00.157Z,14.85
2023-05-13T23:25:27.437Z,14.73
2023-05-13T23:27:54.583Z,15.10
2023-05-13T23:30:22.102Z,14.82
2023-05-13T23:32:49.628Z,14.52
2023-05-13T23:35:16.867Z,14.95
2023-05-13T23:37:44.162Z,13.70
2023-05-13T23:40:11.640Z,11.88
2023-05-13T23:42:38.941Z,14.65
2023-05-13T23:45:07.675Z,11.90
2023-05-13T23:47:34.902Z,13.85
2023-05-13T23:50:02.531Z,11.13
2023-05-13T23:52:29.659Z,12.52
2023-05-13T23:54:57.137Z,10.25
2023-05-13T23:57:24.406Z,11.10
2023-05-13T23:59:51.564Z,10.68
